Time;durP1;ratioP1;P1;durP2;ratioP2;P2;SDS_P1;SDS_P2;PMS_P1;PMS_P2;Temp;Humidity;BMP_temperature;BMP_pressure;BME280_temperature;BME280_humidity;BME280_pressure;Samples;Min_cycle;Max_cycle;Signal;HPM_P1;HPM_P2
2022/03/01 00:00:41;;;;;;;8.33;5.70;;;7.10;59.80;;;;;;5039918;28;20206;-76
2022/03/01 00:03:07;;;;;;;7.20;6.10;;;7.10;59.80;;;;;;5036843;28;20191;-76
2022/03/01 00:05:33;;;;;;;8.00;5.45;;;7.10;59.90;;;;;;5041213;28;20236;-76
2022/03/01 00:07:59;;;;;;;6.33;5.27;;;7.10;60.90;;;;;;5038223;28;20654;-76
2022/03/01 00:10:25;;;;;;;6.73;4.80;;;7.00;59.90;;;;;;5042971;28;21000;-76
2022/03/01 00:12:51;;;;;;;6.20;4.77;;;7.00;60.20;;;;;;5044857;28;20575;-76
2022/03/01 00:15:16;;;;;;;8.57;6.07;;;7.00;60.10;;;;;;5003415;28;20528;-76
2022/03/01 00:17:42;;;;;;;8.07;5.50;;;7.00;60.20;;;;;;5041764;28;20177;-76
2022/03/01 00:20:08;;;;;;;7.07;4.80;;;7.00;60.60;;;;;;5038613;28;20217;-76
2022/03/01 00:22:34;;;;;;;4.80;4.30;;;7.00;60.30;;;;;;5041610;28;20177;-76
2022/03/01 00:25:01;;;;;;;8.23;5.63;;;7.00;60.40;;;;;;5007450;28;20185;-76
2022/03/01 00:27:26;;;;;;;6.72;4.60;;;7.00;60.50;;;;;;5044142;28;20230;-76
2022/03/01 00:29:53;;;;;;;6.38;5.15;;;7.00;60.70;;;;;;5039712;28;20571;-76
2022/03/01 00:32:18;;;;;;;7.10;4.90;;;6.90;61.00;;;;;;5040380;28;20173;-76
2022/03/01 00:34:44;;;;;;;6.13;4.67;;;6.90;61.20;;;;;;5042153;28;20181;-76
2022/03/01 00:37:10;;;;;;;5.40;4.40;;;6.90;60.80;;;;;;5040458;28;20657;-75
2022/03/01 00:39:36;;;;;;;7.40;5.50;;;6.90;60.70;;;;;;5042519;28;20652;-76
2022/03/01 00:42:01;;;;;;;7.40;4.90;;;6.90;60.70;;;;;;5039976;28;20646;-76
2022/03/01 00:44:27;;;;;;;6.80;5.70;;;6.90;60.80;;;;;;5022361;28;20196;-76
2022/03/01 00:46:53;;;;;;;5.80;4.53;;;6.80;60.70;;;;;;5044778;28;20596;-76
2022/03/01 00:49:19;;;;;;;6.73;5.60;;;6.80;60.80;;;;;;5042437;28;20610;-77
2022/03/01 00:51:45;;;;;;;5.90;5.17;;;6.80;60.90;;;;;;5042174;28;20544;-76
2022/03/01 00:54:11;;;;;;;5.83;5.23;;;6.70;61.20;;;;;;5039841;28;20663;-76
2022/03/01 00:56:38;;;;;;;6.78;5.03;;;6.70;61.60;;;;;;5041447;28;21011;-76
2022/03/01 00:59:03;;;;;;;6.80;5.63;;;6.70;61.50;;;;;;5042184;28;20219;-76
2022/03/01 01:01:29;;;;;;;6.07;5.00;;;6.60;61.60;;;;;;5041585;28;20204;-76
2022/03/01 01:03:55;;;;;;;7.40;5.57;;;6.60;61.70;;;;;;5038947;28;20181;-76
2022/03/01 01:06:21;;;;;;;7.20;5.17;;;6.60;61.80;;;;;;5037898;28;20560;-77
2022/03/01 01:08:46;;;;;;;6.40;5.07;;;6.60;62.00;;;;;;5042143;28;20208;-76
2022/03/01 01:11:12;;;;;;;6.70;5.72;;;6.60;61.80;;;;;;5040630;28;20235;-76
2022/03/01 01:13:38;;;;;;;7.33;5.80;;;6.60;61.80;;;;;;5039549;28;20734;-76
2022/03/01 01:16:04;;;;;;;7.70;5.50;;;6.60;61.80;;;;;;5038378;28;20188;-77
2022/03/01 01:18:30;;;;;;;5.95;5.35;;;6.60;62.30;;;;;;5043548;28;20621;-76
2022/03/01 01:20:55;;;;;;;9.13;5.57;;;6.60;62.00;;;;;;5039368;28;20252;-76
2022/03/01 01:23:21;;;;;;;7.10;4.90;;;6.50;61.90;;;;;;5042885;28;20187;-76
2022/03/01 01:25:47;;;;;;;5.82;4.90;;;6.50;61.90;;;;;;5038333;28;20889;-76
2022/03/01 01:28:14;;;;;;;5.90;4.43;;;6.50;62.40;;;;;;5044568;28;20296;-76
2022/03/01 01:30:39;;;;;;;6.97;5.68;;;6.50;62.20;;;;;;5044068;28;20648;-76
2022/03/01 01:33:05;;;;;;;7.17;5.40;;;6.40;62.10;;;;;;5046289;28;20212;-76
2022/03/01 01:35:33;;;;;;;9.98;5.80;;;6.40;62.30;;;;;;5043128;28;20209;-76
2022/03/01 01:37:59;;;;;;;5.82;4.25;;;6.40;62.80;;;;;;5042990;28;20197;-77
2022/03/01 01:40:28;;;;;;;6.35;5.15;;;6.40;62.70;;;;;;5039259;28;20186;-77
2022/03/01 01:42:56;;;;;;;5.82;4.75;;;6.40;63.10;;;;;;5043388;28;20178;-77
2022/03/01 01:45:22;;;;;;;5.78;4.65;;;6.40;62.90;;;;;;5044585;28;20322;-77
2022/03/01 01:47:50;;;;;;;5.70;4.95;;;6.30;62.60;;;;;;5045911;28;20172;-77
2022/03/01 01:50:16;;;;;;;7.97;5.40;;;6.30;62.70;;;;;;5024550;28;20193;-77
2022/03/01 01:52:48;;;;;;;6.55;4.90;;;6.30;62.80;;;;;;5041611;28;20173;-77
2022/03/01 01:55:17;;;;;;;5.55;5.05;;;6.30;63.00;;;;;;5048131;28;20173;-77
2022/03/01 01:57:42;;;;;;;6.35;5.38;;;6.30;63.10;;;;;;5011022;28;20214;-77
2022/03/01 02:00:10;;;;;;;6.80;5.73;;;6.20;63.70;;;;;;5042960;28;20759;-77
2022/03/01 02:02:39;;;;;;;6.85;5.45;;;6.20;63.30;;;;;;5023258;28;20189;-77
2022/03/01 02:05:07;;;;;;;6.97;6.05;;;6.20;63.40;;;;;;5048758;28;20208;-77
2022/03/01 02:07:34;;;;;;;7.47;5.90;;;6.20;63.30;;;;;;5044800;28;20669;-77
2022/03/01 02:10:00;;;;;;;9.20;5.90;;;6.20;64.20;;;;;;5039264;28;20201;-77
2022/03/01 02:12:27;;;;;;;8.98;6.55;;;6.20;64.00;;;;;;5044751;28;20533;-77
2022/03/01 02:14:52;;;;;;;8.68;5.80;;;6.10;64.70;;;;;;5042712;28;20239;-77
2022/03/01 02:17:18;;;;;;;8.13;5.83;;;6.10;64.40;;;;;;5045699;28;20634;-77
2022/03/01 02:19:51;;;;;;;5.10;4.60;;;6.10;64.20;;;;;;5043258;28;20212;-77
2022/03/01 02:22:18;;;;;;;7.20;5.50;;;6.10;64.20;;;;;;5042306;28;20612;-77
2022/03/01 02:24:44;;;;;;;6.13;4.90;;;6.10;64.20;;;;;;5045788;28;20568;-77
2022/03/01 02:27:10;;;;;;;7.45;4.70;;;6.10;64.30;;;;;;5038703;28;20188;-77
2022/03/01 02:29:36;;;;;;;6.57;5.17;;;6.10;64.30;;;;;;5045112;28;20197;-77
2022/03/01 02:32:07;;;;;;;5.80;4.40;;;6.10;64.30;;;;;;5044514;28;21475;-77
2022/03/01 02:34:34;;;;;;;8.73;5.60;;;6.00;64.60;;;;;;5043905;28;20174;-77
2022/03/01 02:37:00;;;;;;;5.82;5.28;;;6.00;64.80;;;;;;5041236;28;20181;-77
2022/03/01 02:39:27;;;;;;;7.60;5.22;;;6.00;64.90;;;;;;5028220;28;20269;-77
2022/03/01 02:41:52;;;;;;;6.93;4.78;;;6.00;64.90;;;;;;5048099;28;20220;-77
2022/03/01 02:44:18;;;;;;;7.70;6.33;;;6.00;65.20;;;;;;5027268;28;20224;-77
2022/03/01 02:46:44;;;;;;;7.85;5.88;;;5.90;65.90;;;;;;5041548;28;20192;-77
2022/03/01 02:49:10;;;;;;;8.40;7.33;;;5.90;66.00;;;;;;5045319;28;20197;-77
2022/03/01 02:51:37;;;;;;;9.43;6.50;;;5.90;66.40;;;;;;5041584;28;20194;-77
2022/03/01 02:54:05;;;;;;;8.23;5.28;;;5.90;67.00;;;;;;5046366;28;20209;-77
2022/03/01 02:56:31;;;;;;;6.03;5.03;;;5.90;66.40;;;;;;5044738;28;20169;-77
2022/03/01 02:58:59;;;;;;;7.77;4.97;;;5.90;66.10;;;;;;5051463;28;20181;-77
2022/03/01 03:01:26;;;;;;;7.05;5.25;;;5.90;66.70;;;;;;5040537;28;20612;-77
2022/03/01 03:03:51;;;;;;;6.88;5.05;;;5.90;66.10;;;;;;5041479;28;20201;-77
2022/03/01 03:06:18;;;;;;;6.20;5.20;;;5.90;66.30;;;;;;5044239;28;20232;-77
2022/03/01 03:08:44;;;;;;;7.90;6.05;;;5.90;66.70;;;;;;5040324;28;20201;-77
2022/03/01 03:11:10;;;;;;;8.48;5.63;;;5.90;67.50;;;;;;5044579;28;20205;-77
2022/03/01 03:13:36;;;;;;;7.28;5.63;;;5.90;66.80;;;;;;5044161;28;20207;-77
2022/03/01 03:16:03;;;;;;;7.22;5.78;;;5.90;67.90;;;;;;5043996;28;20751;-77
2022/03/01 03:18:30;;;;;;;7.10;6.40;;;5.90;67.40;;;;;;5027784;28;20173;-77
2022/03/01 03:20:55;;;;;;;9.90;6.80;;;5.90;68.00;;;;;;5044486;28;20666;-77
2022/03/01 03:23:21;;;;;;;7.30;6.23;;;5.90;67.60;;;;;;5041509;28;20177;-77
2022/03/01 03:25:47;;;;;;;6.70;5.47;;;5.90;67.40;;;;;;5044548;28;20177;-77
2022/03/01 03:28:13;;;;;;;6.50;5.60;;;5.90;67.50;;;;;;5042354;28;20236;-77
2022/03/01 03:30:38;;;;;;;5.30;4.80;;;5.90;68.00;;;;;;5043018;28;20974;-77
2022/03/01 03:33:04;;;;;;;8.43;5.90;;;5.90;67.50;;;;;;5043568;28;20199;-77
2022/03/01 03:35:30;;;;;;;9.07;7.00;;;5.90;68.20;;;;;;5043716;28;20184;-77
2022/03/01 03:37:55;;;;;;;7.00;5.40;;;5.90;67.80;;;;;;5041535;28;20177;-77
2022/03/01 03:40:21;;;;;;;9.13;7.80;;;6.00;67.80;;;;;;5040456;28;20716;-78
2022/03/01 03:42:47;;;;;;;7.63;5.83;;;5.90;68.40;;;;;;5040430;28;20634;-77
2022/03/01 03:45:13;;;;;;;8.53;6.70;;;5.90;68.40;;;;;;5042525;28;20181;-77
2022/03/01 03:47:40;;;;;;;7.65;6.20;;;6.00;68.30;;;;;;5042790;28;20607;-77
2022/03/01 03:50:09;;;;;;;7.30;6.18;;;5.90;68.40;;;;;;5041843;28;20213;-77
2022/03/01 03:52:37;;;;;;;7.90;6.10;;;6.00;68.20;;;;;;5044301;28;20184;-77
2022/03/01 03:55:05;;;;;;;7.78;6.65;;;6.00;68.50;;;;;;5021048;28;20194;-77
2022/03/01 03:57:32;;;;;;;7.28;6.57;;;6.00;68.60;;;;;;5043997;28;20219;-77
2022/03/01 03:59:59;;;;;;;8.43;7.40;;;6.00;68.60;;;;;;5041230;28;20209;-78
2022/03/01 04:02:24;;;;;;;9.23;6.38;;;5.90;68.50;;;;;;5044885;28;20188;-77
2022/03/01 04:04:50;;;;;;;7.30;6.50;;;6.00;68.50;;;;;;5038967;28;20178;-77
2022/03/01 04:07:16;;;;;;;8.20;6.10;;;6.00;68.40;;;;;;5043058;28;20587;-77
2022/03/01 04:09:42;;;;;;;6.95;6.07;;;5.90;68.90;;;;;;5038932;28;20205;-77
2022/03/01 04:12:08;;;;;;;7.40;6.23;;;5.90;68.70;;;;;;5041822;28;20181;-77
2022/03/01 04:14:34;;;;;;;6.50;5.03;;;5.90;68.80;;;;;;5041113;28;20177;-77
2022/03/01 04:17:01;;;;;;;7.45;6.25;;;5.90;68.60;;;;;;5040334;28;20243;-77
2022/03/01 04:19:27;;;;;;;8.52;6.38;;;5.90;68.60;;;;;;5040990;28;20204;-77
2022/03/01 04:21:52;;;;;;;7.90;5.50;;;5.90;68.90;;;;;;5043358;28;20307;-77
2022/03/01 04:24:18;;;;;;;9.30;5.57;;;5.90;68.80;;;;;;5036709;28;20371;-77
2022/03/01 04:26:44;;;;;;;7.83;6.10;;;5.90;68.70;;;;;;5044710;28;20177;-77
2022/03/01 04:29:10;;;;;;;8.10;6.20;;;5.90;69.00;;;;;;5042617;28;20208;-77
2022/03/01 04:31:35;;;;;;;7.87;5.90;;;5.90;69.10;;;;;;5046019;28;20205;-77
2022/03/01 04:34:01;;;;;;;7.57;5.90;;;5.90;69.30;;;;;;5020137;28;20599;-77
2022/03/01 04:36:27;;;;;;;7.03;5.97;;;5.90;69.30;;;;;;5042864;28;20621;-77
2022/03/01 04:38:53;;;;;;;8.80;6.87;;;5.90;69.60;;;;;;5043865;28;20251;-77
2022/03/01 04:41:19;;;;;;;8.40;6.03;;;5.90;69.30;;;;;;5040292;28;21029;-78
2022/03/01 04:43:45;;;;;;;6.33;5.43;;;5.90;69.10;;;;;;5041730;28;20177;-77
2022/03/01 04:46:11;;;;;;;8.88;7.28;;;5.90;70.10;;;;;;5023248;28;20288;-78
2022/03/01 04:48:37;;;;;;;7.03;5.93;;;5.80;70.20;;;;;;5041455;28;20292;-77
2022/03/01 04:51:04;;;;;;;10.88;7.15;;;5.80;69.80;;;;;;5041922;28;20614;-78
2022/03/01 04:53:30;;;;;;;8.60;7.35;;;5.80;69.60;;;;;;5040446;28;20185;-77
2022/03/01 04:55:56;;;;;;;7.80;5.93;;;5.80;69.70;;;;;;5042581;28;20215;-78
2022/03/01 04:58:22;;;;;;;7.88;6.00;;;5.80;69.80;;;;;;5041178;28;20721;-78
2022/03/01 05:00:48;;;;;;;6.75;5.95;;;5.80;70.10;;;;;;5040892;28;20216;-77
2022/03/01 05:03:14;;;;;;;9.50;6.97;;;5.80;70.10;;;;;;5041465;28;20216;-77
2022/03/01 05:05:39;;;;;;;7.28;6.30;;;5.80;70.00;;;;;;5042620;28;20186;-77
2022/03/01 05:08:05;;;;;;;7.70;6.80;;;5.80;70.10;;;;;;5044275;28;20177;-76
2022/03/01 05:10:31;;;;;;;9.77;6.27;;;5.70;70.50;;;;;;5046941;28;20196;-76
2022/03/01 05:13:01;;;;;;;10.95;7.15;;;5.70;70.10;;;;;;5047884;28;20582;-76
2022/03/01 05:15:28;;;;;;;8.48;6.82;;;5.70;70.90;;;;;;5035020;28;20591;-77
2022/03/01 05:17:56;;;;;;;7.75;6.60;;;5.70;70.70;;;;;;5041754;28;20616;-77
2022/03/01 05:20:21;;;;;;;7.93;6.78;;;5.60;71.20;;;;;;5040053;28;20188;-77
2022/03/01 05:22:49;;;;;;;6.82;5.13;;;5.70;70.70;;;;;;5045078;28;20169;-78
2022/03/01 05:25:17;;;;;;;9.15;6.68;;;5.70;70.60;;;;;;5037254;28;20269;-78
2022/03/01 05:27:45;;;;;;;8.35;6.60;;;5.70;70.70;;;;;;5041371;28;20165;-78
2022/03/01 05:30:14;;;;;;;7.13;6.07;;;5.60;70.80;;;;;;5046244;28;20221;-77
2022/03/01 05:32:46;;;;;;;10.30;6.63;;;5.60;70.60;;;;;;5038656;28;20166;-77
2022/03/01 05:35:17;;;;;;;7.65;5.93;;;5.60;70.60;;;;;;5037987;28;20565;-77
2022/03/01 05:37:44;;;;;;;8.60;7.70;;;5.60;70.60;;;;;;5037824;28;20226;-77
2022/03/01 05:40:12;;;;;;;6.85;6.15;;;5.60;71.00;;;;;;5041682;28;20196;-77
2022/03/01 05:42:40;;;;;;;7.07;6.38;;;5.60;71.30;;;;;;5039277;28;20217;-77
2022/03/01 05:45:06;;;;;;;7.78;6.95;;;5.50;71.00;;;;;;5042490;28;20208;-77
2022/03/01 05:47:32;;;;;;;11.93;8.23;;;5.50;71.00;;;;;;5040653;28;20188;-77
2022/03/01 05:49:58;;;;;;;8.97;5.77;;;5.50;71.20;;;;;;5039053;28;20220;-77
2022/03/01 05:52:23;;;;;;;8.23;6.20;;;5.50;71.20;;;;;;5041764;28;20612;-77
2022/03/01 05:54:49;;;;;;;8.07;7.07;;;5.50;71.20;;;;;;5041899;28;20947;-78
2022/03/01 05:57:15;;;;;;;8.80;6.40;;;5.50;71.70;;;;;;5038346;28;20182;-77
2022/03/01 05:59:42;;;;;;;10.95;7.60;;;5.50;71.90;;;;;;5041021;28;20185;-77
2022/03/01 06:02:08;;;;;;;7.38;5.88;;;5.50;71.70;;;;;;5039715;28;20178;-77
2022/03/01 06:04:34;;;;;;;7.80;6.75;;;5.50;71.60;;;;;;5039257;28;20193;-78
2022/03/01 06:07:00;;;;;;;9.30;7.40;;;5.50;71.60;;;;;;5040905;28;20180;-78
2022/03/01 06:09:26;;;;;;;10.70;7.25;;;5.50;71.70;;;;;;5023750;28;20623;-78
2022/03/01 06:11:53;;;;;;;11.05;7.68;;;5.60;71.80;;;;;;5038845;28;20197;-77
2022/03/01 06:14:18;;;;;;;9.83;7.63;;;5.50;72.40;;;;;;5042499;28;20223;-77
2022/03/01 06:16:44;;;;;;;10.03;6.40;;;5.60;72.20;;;;;;5041466;28;20204;-77
2022/03/01 06:19:11;;;;;;;7.93;6.90;;;5.50;72.20;;;;;;5043376;28;20260;-77
2022/03/01 06:21:36;;;;;;;9.02;6.47;;;5.50;72.50;;;;;;5042288;28;20256;-77
2022/03/01 06:24:04;;;;;;;7.53;6.40;;;5.50;72.50;;;;;;5042744;28;20185;-77
2022/03/01 06:26:30;;;;;;;12.90;8.13;;;5.60;72.60;;;;;;5049364;28;20207;-77
2022/03/01 06:28:56;;;;;;;10.90;7.93;;;5.60;72.60;;;;;;5042175;28;20724;-77
2022/03/01 06:31:21;;;;;;;10.05;7.95;;;5.60;72.50;;;;;;5043899;28;20211;-77
2022/03/01 06:33:47;;;;;;;8.10;6.83;;;5.50;72.70;;;;;;5042956;28;20174;-78
2022/03/01 06:36:13;;;;;;;10.17;8.13;;;5.50;72.50;;;;;;5043224;28;20633;-77
2022/03/01 06:38:39;;;;;;;13.33;7.50;;;5.50;72.60;;;;;;5043892;28;21115;-77
2022/03/01 06:41:06;;;;;;;9.20;7.65;;;5.50;72.60;;;;;;5023743;28;20607;-77
2022/03/01 06:43:31;;;;;;;8.90;6.87;;;5.60;72.60;;;;;;5043992;28;20185;-77
2022/03/01 06:45:57;;;;;;;10.10;7.43;;;5.50;72.80;;;;;;5041868;28;20316;-76
2022/03/01 06:48:23;;;;;;;8.20;6.83;;;5.50;73.00;;;;;;5040823;28;20292;-76
2022/03/01 06:50:48;;;;;;;9.70;7.80;;;5.50;73.10;;;;;;5044083;28;20682;-77
2022/03/01 06:53:14;;;;;;;9.77;7.80;;;5.50;73.30;;;;;;5041889;28;20189;-77
2022/03/01 06:55:44;;;;;;;8.97;8.07;;;5.50;73.20;;;;;;5049778;28;20729;-77
2022/03/01 06:58:11;;;;;;;9.82;6.90;;;5.50;73.40;;;;;;5044456;28;20549;-77
2022/03/01 07:00:36;;;;;;;7.68;6.30;;;5.60;73.50;;;;;;5041685;28;20193;-77
2022/03/01 07:03:03;;;;;;;8.53;7.07;;;5.60;73.50;;;;;;5049763;28;20564;-77
2022/03/01 07:05:29;;;;;;;9.98;7.60;;;5.70;73.60;;;;;;5041626;28;20598;-77
2022/03/01 07:07:55;;;;;;;7.70;5.97;;;5.80;73.90;;;;;;5042299;28;20177;-77
2022/03/01 07:10:20;;;;;;;8.83;7.93;;;5.80;73.80;;;;;;5042383;28;20573;-77
2022/03/01 07:12:47;;;;;;;11.82;7.78;;;5.90;73.70;;;;;;5041763;28;20175;-77
2022/03/01 07:15:13;;;;;;;9.73;8.70;;;6.00;73.80;;;;;;5042955;28;20170;-77
2022/03/01 07:17:39;;;;;;;9.10;7.05;;;6.10;73.70;;;;;;5044257;28;20646;-77
2022/03/01 07:20:07;;;;;;;9.40;6.90;;;6.10;73.80;;;;;;5043956;28;20235;-77
2022/03/01 07:22:33;;;;;;;10.43;7.80;;;6.20;73.50;;;;;;5044904;28;20184;-77
2022/03/01 07:24:59;;;;;;;9.40;8.40;;;6.20;73.00;;;;;;5042631;28;20189;-77
2022/03/01 07:27:25;;;;;;;10.10;7.80;;;6.30;73.00;;;;;;5040091;28;20288;-77
2022/03/01 07:29:51;;;;;;;11.05;7.95;;;6.30;72.70;;;;;;5044306;28;20231;-77
2022/03/01 07:32:17;;;;;;;12.20;7.77;;;6.30;72.80;;;;;;5040593;28;20238;-77
2022/03/01 07:34:46;;;;;;;12.75;8.30;;;6.30;72.50;;;;;;5043685;28;20206;-77
2022/03/01 07:37:12;;;;;;;6.83;6.13;;;6.40;72.80;;;;;;5042234;28;20680;-77
2022/03/01 07:39:37;;;;;;;11.53;7.57;;;6.40;72.80;;;;;;5050691;28;20180;-77
2022/03/01 07:42:04;;;;;;;9.17;6.37;;;6.40;72.50;;;;;;5044486;28;20201;-77
2022/03/01 07:44:30;;;;;;;14.05;9.25;;;6.40;72.20;;;;;;5037679;28;20204;-77
2022/03/01 07:46:57;;;;;;;10.55;8.65;;;6.40;71.90;;;;;;5042964;28;20189;-77
2022/03/01 07:49:23;;;;;;;10.27;8.70;;;6.40;71.50;;;;;;5046103;28;20216;-77
2022/03/01 07:52:00;;;;;;;10.77;7.50;;;6.40;71.60;;;;;;5041365;28;20193;-77
2022/03/01 07:54:26;;;;;;;9.20;6.88;;;6.40;71.70;;;;;;5043129;28;20602;-77
2022/03/01 07:56:52;;;;;;;11.60;7.33;;;6.50;72.30;;;;;;5043240;28;20634;-77
2022/03/01 07:59:18;;;;;;;11.85;8.07;;;6.60;71.90;;;;;;5040264;28;20347;-77
2022/03/01 08:01:44;;;;;;;11.95;9.00;;;6.50;70.90;;;;;;5041271;28;20201;-76
2022/03/01 08:04:10;;;;;;;10.33;8.47;;;6.50;70.70;;;;;;5045404;28;20185;-76
2022/03/01 08:06:36;;;;;;;11.00;8.00;;;6.50;70.00;;;;;;5040357;28;20206;-76
2022/03/01 08:09:02;;;;;;;13.60;9.13;;;6.50;70.50;;;;;;5044103;28;20623;-77
2022/03/01 08:11:27;;;;;;;11.43;8.43;;;6.60;70.90;;;;;;5040175;28;20635;-77
2022/03/01 08:13:53;;;;;;;11.97;8.43;;;6.60;69.80;;;;;;5043516;28;21129;-77
2022/03/01 08:16:19;;;;;;;11.90;7.83;;;6.70;70.90;;;;;;5026527;28;20639;-76
2022/03/01 08:18:45;;;;;;;11.40;8.10;;;6.70;70.80;;;;;;5046006;28;20579;-76
2022/03/01 08:21:11;;;;;;;10.67;7.87;;;6.90;71.30;;;;;;5042491;28;20190;-76
2022/03/01 08:23:38;;;;;;;9.93;7.68;;;7.00;71.00;;;;;;5039915;28;20581;-76
2022/03/01 08:26:04;;;;;;;10.38;6.70;;;7.10;70.60;;;;;;5023294;28;20651;-76
2022/03/01 08:28:31;;;;;;;12.35;9.15;;;7.30;70.80;;;;;;5044356;28;20196;-76
2022/03/01 08:30:57;;;;;;;12.32;8.13;;;7.40;70.30;;;;;;5046075;28;20190;-77
2022/03/01 08:33:24;;;;;;;9.55;7.75;;;7.70;69.90;;;;;;5042829;28;20283;-76
2022/03/01 08:35:50;;;;;;;13.55;8.23;;;8.00;71.00;;;;;;5042962;28;20231;-76
2022/03/01 08:38:16;;;;;;;11.43;7.82;;;8.50;71.20;;;;;;5041571;28;20272;-76
2022/03/01 08:40:42;;;;;;;9.85;7.97;;;9.10;72.70;;;;;;5047565;28;20201;-76
2022/03/01 08:43:10;;;;;;;11.55;8.43;;;9.80;71.80;;;;;;5048657;28;20181;-77
2022/03/01 08:45:38;;;;;;;10.30;8.65;;;10.50;69.00;;;;;;5041526;28;20193;-76
2022/03/01 08:48:04;;;;;;;10.65;8.15;;;11.10;65.10;;;;;;5035410;28;20578;-76
2022/03/01 08:50:31;;;;;;;14.20;8.27;;;11.50;64.40;;;;;;5017840;28;20210;-76
2022/03/01 08:52:57;;;;;;;9.77;8.03;;;11.90;62.70;;;;;;5043422;28;20228;-76
2022/03/01 08:55:23;;;;;;;15.10;8.80;;;12.50;64.30;;;;;;5040882;28;20646;-77
2022/03/01 08:57:49;;;;;;;9.13;7.23;;;12.70;57.30;;;;;;5037901;28;20185;-76
2022/03/01 09:00:15;;;;;;;8.23;7.27;;;13.20;62.10;;;;;;5042343;28;20606;-76
2022/03/01 09:02:46;;;;;;;8.83;6.47;;;13.40;60.00;;;;;;5041251;28;20170;-76
2022/03/01 09:05:14;;;;;;;9.50;6.83;;;13.60;61.10;;;;;;5040091;28;20641;-77
2022/03/01 09:07:40;;;;;;;9.10;7.07;;;13.60;61.40;;;;;;5042887;28;20961;-76
2022/03/01 09:10:07;;;;;;;10.27;7.90;;;13.60;59.50;;;;;;5039503;28;20727;-76
2022/03/01 09:12:33;;;;;;;10.17;7.47;;;13.40;57.70;;;;;;5038312;28;20576;-76
2022/03/01 09:14:59;;;;;;;11.30;8.90;;;13.30;58.90;;;;;;5040765;28;20937;-76
2022/03/01 09:17:25;;;;;;;10.77;8.83;;;13.20;57.60;;;;;;5042015;28;20173;-76
2022/03/01 09:19:51;;;;;;;8.95;7.15;;;12.90;55.90;;;;;;5038245;28;20180;-76
2022/03/01 09:22:17;;;;;;;8.85;6.65;;;12.60;57.40;;;;;;5042067;28;20226;-76
2022/03/01 09:24:44;;;;;;;11.60;8.67;;;12.60;58.10;;;;;;5042155;28;20256;-76
2022/03/01 09:27:10;;;;;;;11.85;7.85;;;12.60;58.50;;;;;;5040486;28;20707;-76
2022/03/01 09:29:37;;;;;;;9.80;8.02;;;12.40;56.50;;;;;;5039647;28;20338;-76
2022/03/01 09:32:03;;;;;;;8.70;7.80;;;12.20;56.70;;;;;;5047908;28;20212;-76
2022/03/01 09:34:30;;;;;;;7.65;6.82;;;12.10;57.40;;;;;;5038677;28;20226;-76
2022/03/01 09:36:55;;;;;;;9.80;7.68;;;11.90;56.70;;;;;;5021564;28;20616;-76
2022/03/01 09:39:21;;;;;;;10.93;6.97;;;11.70;56.10;;;;;;5041207;28;20264;-76
2022/03/01 09:41:48;;;;;;;9.73;7.57;;;11.40;56.00;;;;;;5038401;28;21217;-76
2022/03/01 09:44:15;;;;;;;15.23;7.88;;;11.20;56.60;;;;;;5039648;28;20703;-76
2022/03/01 09:46:42;;;;;;;10.23;8.73;;;11.00;56.50;;;;;;5038977;28;20201;-76
2022/03/01 09:49:09;;;;;;;9.95;8.27;;;10.90;56.10;;;;;;5042043;28;20704;-76
2022/03/01 09:51:37;;;;;;;13.82;8.40;;;10.60;55.30;;;;;;5041299;28;20597;-76
2022/03/01 09:54:03;;;;;;;14.63;8.52;;;10.30;55.80;;;;;;5044614;28;20177;-76
2022/03/01 09:56:29;;;;;;;9.25;7.07;;;10.20;55.90;;;;;;5039509;28;20177;-76
2022/03/01 09:58:55;;;;;;;11.17;8.20;;;10.10;56.70;;;;;;5045981;28;20187;-76
2022/03/01 10:01:22;;;;;;;9.73;7.45;;;10.10;56.90;;;;;;5042165;28;20209;-76
2022/03/01 10:03:49;;;;;;;8.90;6.80;;;10.20;57.70;;;;;;5028868;28;20389;-76
2022/03/01 10:06:17;;;;;;;12.43;7.47;;;10.40;58.90;;;;;;5042647;28;20185;-76
2022/03/01 10:08:44;;;;;;;10.95;8.13;;;11.00;60.30;;;;;;5049341;28;20209;-76
2022/03/01 10:11:10;;;;;;;11.50;6.25;;;11.60;60.90;;;;;;5044754;28;20212;-76
2022/03/01 10:13:38;;;;;;;8.20;6.40;;;12.40;63.30;;;;;;5044793;28;20177;-76
2022/03/01 10:16:07;;;;;;;9.03;7.17;;;13.20;64.20;;;;;;5045880;28;20575;-76
2022/03/01 10:18:40;;;;;;;11.93;7.23;;;14.00;61.90;;;;;;5039189;28;20763;-76
2022/03/01 10:21:14;;;;;;;8.47;6.67;;;14.90;61.40;;;;;;5042635;28;20607;-77
2022/03/01 10:23:46;;;;;;;8.90;6.70;;;15.50;61.40;;;;;;5045927;28;20571;-76
2022/03/01 10:26:20;;;;;;;7.70;6.30;;;15.90;60.40;;;;;;5033010;28;20679;-76
2022/03/01 10:28:47;;;;;;;8.93;7.40;;;16.20;58.10;;;;;;5041211;28;20722;-77
2022/03/01 10:31:15;;;;;;;11.43;7.70;;;16.10;55.10;;;;;;5046219;28;20604;-76
2022/03/01 10:34:11;;;;;;;10.07;6.10;;;15.80;52.60;;;;;;5039709;28;20580;-76
2022/03/01 10:36:49;;;;;;;9.00;6.90;;;15.50;54.30;;;;;;5028063;28;20576;-76
2022/03/01 10:39:20;;;;;;;9.47;7.30;;;15.30;50.80;;;;;;5042263;28;21195;-76
2022/03/01 10:41:48;;;;;;;7.83;6.10;;;15.10;52.60;;;;;;5022613;28;20628;-76
2022/03/01 10:44:20;;;;;;;9.53;6.40;;;14.70;49.90;;;;;;5044876;28;21168;-76
2022/03/01 10:46:50;;;;;;;11.00;7.00;;;14.20;49.50;;;;;;5031344;28;21092;-76
2022/03/01 10:49:24;;;;;;;8.13;6.65;;;13.70;49.40;;;;;;5020978;28;20968;-76
2022/03/01 10:51:52;;;;;;;8.77;7.10;;;13.40;50.30;;;;;;5025152;28;20208;-76
2022/03/01 10:54:34;;;;;;;9.20;7.15;;;13.10;49.80;;;;;;5044612;28;20598;-76
2022/03/01 10:57:06;;;;;;;10.70;7.65;;;12.80;50.80;;;;;;5041987;28;20173;-76
2022/03/01 10:59:34;;;;;;;9.73;7.57;;;12.70;50.50;;;;;;5044742;28;20655;-76
2022/03/01 11:02:00;;;;;;;12.25;7.97;;;12.40;49.60;;;;;;5036348;28;20197;-76
2022/03/01 11:04:27;;;;;;;10.80;6.85;;;12.20;48.90;;;;;;5045658;28;20184;-76
2022/03/01 11:07:01;;;;;;;9.05;6.45;;;12.10;49.90;;;;;;5042093;28;20185;-76
2022/03/01 11:09:29;;;;;;;9.95;5.78;;;12.00;50.20;;;;;;5040518;28;20209;-76
2022/03/01 11:11:57;;;;;;;7.40;5.70;;;12.00;50.90;;;;;;5039217;28;20192;-76
2022/03/01 11:14:25;;;;;;;7.38;5.50;;;11.90;50.20;;;;;;5043955;28;20201;-76
2022/03/01 11:17:08;;;;;;;8.70;7.15;;;11.90;51.60;;;;;;5041606;28;20206;-76
2022/03/01 11:20:01;;;;;;;8.88;5.72;;;11.90;51.10;;;;;;5036270;28;20548;-76
2022/03/01 11:22:38;;;;;;;9.82;6.60;;;11.80;50.20;;;;;;5008632;28;20677;-76
2022/03/01 11:25:05;;;;;;;9.07;6.03;;;11.90;51.30;;;;;;5045524;28;20580;-76
2022/03/01 11:27:43;;;;;;;8.63;5.93;;;11.90;50.90;;;;;;5044694;28;20185;-76
2022/03/01 11:30:10;;;;;;;8.00;6.28;;;11.80;50.70;;;;;;5025404;28;20523;-76
2022/03/01 11:32:42;;;;;;;10.43;6.80;;;11.90;51.20;;;;;;5041505;28;20181;-75
2022/03/01 11:35:25;;;;;;;10.40;5.95;;;11.90;50.20;;;;;;5038754;28;20185;-77
2022/03/01 11:38:12;;;;;;;7.40;6.30;;;11.80;48.10;;;;;;5041063;28;20641;-76
2022/03/01 11:40:43;;;;;;;10.80;6.45;;;11.80;49.20;;;;;;5039591;28;20211;-76
2022/03/01 11:43:16;;;;;;;8.00;5.90;;;11.80;49.10;;;;;;5038541;28;20272;-76
2022/03/01 11:45:48;;;;;;;7.47;5.97;;;11.80;49.90;;;;;;5040678;28;20193;-76
2022/03/01 11:48:17;;;;;;;7.10;6.05;;;11.90;50.00;;;;;;5023072;28;20181;-76
2022/03/01 11:50:46;;;;;;;8.50;6.55;;;11.90;49.40;;;;;;5042775;28;20189;-76
2022/03/01 11:53:15;;;;;;;7.78;5.90;;;12.10;49.40;;;;;;5045815;28;20268;-76
2022/03/01 11:55:47;;;;;;;9.57;6.15;;;12.00;49.00;;;;;;5041833;28;20211;-76
2022/03/01 11:58:14;;;;;;;12.75;6.10;;;12.10;50.20;;;;;;5038568;28;20597;-76
2022/03/01 12:00:41;;;;;;;7.88;6.60;;;12.10;49.60;;;;;;5054994;28;20226;-76
2022/03/01 12:03:12;;;;;;;10.30;5.90;;;12.20;48.30;;;;;;5042666;28;20287;-76
2022/03/01 12:05:39;;;;;;;12.90;7.20;;;12.20;49.50;;;;;;5042578;28;20231;-76
2022/03/01 12:08:07;;;;;;;6.55;5.85;;;12.30;49.50;;;;;;5039103;28;20211;-76
2022/03/01 12:10:33;;;;;;;8.48;5.63;;;12.40;49.50;;;;;;5024840;28;20821;-77
2022/03/01 12:13:05;;;;;;;7.28;5.82;;;12.50;50.70;;;;;;5040293;28;20178;-76
2022/03/01 12:15:37;;;;;;;7.15;5.55;;;12.50;47.70;;;;;;5041187;28;20578;-76
2022/03/01 12:18:15;;;;;;;7.03;5.45;;;12.60;49.30;;;;;;5033811;28;20241;-76
2022/03/01 12:20:46;;;;;;;7.90;5.32;;;12.60;49.10;;;;;;5039640;28;20201;-76
2022/03/01 12:23:24;;;;;;;6.72;5.10;;;12.60;47.70;;;;;;5025565;28;20637;-76
2022/03/01 12:25:51;;;;;;;7.05;4.65;;;12.70;48.60;;;;;;5038584;28;20195;-76
2022/03/01 12:28:20;;;;;;;7.25;6.28;;;12.80;49.70;;;;;;5042926;28;20169;-76
2022/03/01 12:30:45;;;;;;;10.40;7.82;;;12.80;47.40;;;;;;5021563;28;20197;-76
2022/03/01 12:33:16;;;;;;;9.93;7.70;;;12.80;46.50;;;;;;5038865;28;20192;-76
2022/03/01 12:35:43;;;;;;;11.80;7.65;;;12.60;45.70;;;;;;5040679;28;20177;-76
2022/03/01 12:38:15;;;;;;;8.02;5.82;;;12.60;46.60;;;;;;5045816;28;20267;-76
2022/03/01 12:40:42;;;;;;;8.35;5.55;;;12.60;48.00;;;;;;5038192;28;20206;-76
2022/03/01 12:43:10;;;;;;;8.35;6.20;;;12.70;48.90;;;;;;5042733;28;20291;-76
2022/03/01 12:45:43;;;;;;;9.88;5.53;;;12.70;47.90;;;;;;5023445;28;20255;-76
2022/03/01 12:48:11;;;;;;;8.70;6.05;;;12.80;47.90;;;;;;5022370;28;20595;-76
2022/03/01 12:50:49;;;;;;;6.93;5.07;;;12.80;47.90;;;;;;5035549;28;20197;-76